sensor_id;sensor_type;location;lat;lon;timestamp;P1;durP1;ratioP1;P2;durP2;ratioP2
68507;SDS011;55510;49.560;19.090;2023-05-07T13:39:45;16.27;;;8.45;;
68507;SDS011;55510;49.560;19.090;2023-05-07T13:42:46;15.82;;;8.27;;
68507;SDS011;55510;49.560;19.090;2023-05-07T13:45:46;16.40;;;9.37;;
68507;SDS011;55510;49.560;19.090;2023-05-07T13:48:47;15.88;;;8.60;;
68507;SDS011;55510;49.560;19.090;2023-05-07T13:51:48;15.43;;;7.63;;
68507;SDS011;55510;49.560;19.090;2023-05-07T13:54:48;21.35;;;9.07;;
68507;SDS011;55510;49.560;19.090;2023-05-07T13:57:56;22.83;;;11.77;;
68507;SDS011;55510;49.560;19.090;2023-05-07T14:00:58;27.73;;;14.52;;
68507;SDS011;55510;49.560;19.090;2023-05-07T14:03:58;25.63;;;14.87;;
68507;SDS011;55510;49.560;19.090;2023-05-07T14:07:01;21.38;;;12.48;;
68507;SDS011;55510;49.560;19.090;2023-05-07T14:10:02;18.33;;;10.00;;
68507;SDS011;55510;49.560;19.090;2023-05-07T14:13:03;17.92;;;10.27;;
68507;SDS011;55510;49.560;19.090;2023-05-07T14:16:04;19.25;;;10.40;;
68507;SDS011;55510;49.560;19.090;2023-05-07T14:19:05;18.43;;;9.07;;
68507;SDS011;55510;49.560;19.090;2023-05-07T14:22:06;22.20;;;13.73;;
68507;SDS011;55510;49.560;19.090;2023-05-07T14:25:06;15.53;;;8.80;;
68507;SDS011;55510;49.560;19.090;2023-05-07T14:28:09;34.25;;;21.00;;
68507;SDS011;55510;49.560;19.090;2023-05-07T14:31:10;29.13;;;18.20;;
68507;SDS011;55510;49.560;19.090;2023-05-07T14:34:10;28.43;;;15.60;;
68507;SDS011;55510;49.560;19.090;2023-05-07T14:37:11;106.27;;;49.30;;
68507;SDS011;55510;49.560;19.090;2023-05-07T14:40:12;68.03;;;40.92;;
68507;SDS011;55510;49.560;19.090;2023-05-07T14:43:13;29.42;;;17.58;;
68507;SDS011;55510;49.560;19.090;2023-05-07T14:46:15;35.90;;;22.63;;
68507;SDS011;55510;49.560;19.090;2023-05-07T14:49:19;28.43;;;17.30;;
68507;SDS011;55510;49.560;19.090;2023-05-07T14:52:20;28.70;;;18.65;;
68507;SDS011;55510;49.560;19.090;2023-05-07T14:55:20;34.70;;;21.40;;
68507;SDS011;55510;49.560;19.090;2023-05-07T14:58:21;46.23;;;25.40;;
68507;SDS011;55510;49.560;19.090;2023-05-07T15:01:22;46.58;;;27.50;;
68507;SDS011;55510;49.560;19.090;2023-05-07T15:04:23;34.43;;;19.80;;
68507;SDS011;55510;49.560;19.090;2023-05-07T15:07:24;30.75;;;18.00;;
68507;SDS011;55510;49.560;19.090;2023-05-07T15:10:25;29.97;;;17.77;;
68507;SDS011;55510;49.560;19.090;2023-05-07T15:13:26;34.42;;;19.98;;
68507;SDS011;55510;49.560;19.090;2023-05-07T15:16:26;44.20;;;21.90;;
68507;SDS011;55510;49.560;19.090;2023-05-07T15:19:27;41.72;;;20.30;;
68507;SDS011;55510;49.560;19.090;2023-05-07T15:22:29;69.13;;;31.38;;
68507;SDS011;55510;49.560;19.090;2023-05-07T15:25:30;66.43;;;28.23;;
68507;SDS011;55510;49.560;19.090;2023-05-07T15:28:33;34.92;;;18.27;;
68507;SDS011;55510;49.560;19.090;2023-05-07T15:31:34;38.53;;;20.90;;
68507;SDS011;55510;49.560;19.090;2023-05-07T15:34:34;27.87;;;17.20;;
68507;SDS011;55510;49.560;19.090;2023-05-07T15:37:35;49.38;;;30.85;;
68507;SDS011;55510;49.560;19.090;2023-05-07T15:40:35;56.57;;;29.30;;
68507;SDS011;55510;49.560;19.090;2023-05-07T15:43:46;51.10;;;25.55;;
68507;SDS011;55510;49.560;19.090;2023-05-07T15:46:49;44.92;;;20.25;;
68507;SDS011;55510;49.560;19.090;2023-05-07T15:49:50;46.73;;;22.17;;
68507;SDS011;55510;49.560;19.090;2023-05-07T15:52:50;38.30;;;20.67;;
68507;SDS011;55510;49.560;19.090;2023-05-07T15:55:51;47.73;;;22.43;;
68507;SDS011;55510;49.560;19.090;2023-05-07T15:58:52;41.22;;;21.90;;
68507;SDS011;55510;49.560;19.090;2023-05-07T16:01:53;35.93;;;19.33;;
68507;SDS011;55510;49.560;19.090;2023-05-07T16:04:54;45.45;;;23.70;;
68507;SDS011;55510;49.560;19.090;2023-05-07T16:07:55;41.08;;;22.50;;
68507;SDS011;55510;49.560;19.090;2023-05-07T16:10:57;33.83;;;16.33;;
68507;SDS011;55510;49.560;19.090;2023-05-07T16:13:58;33.77;;;16.00;;
68507;SDS011;55510;49.560;19.090;2023-05-07T16:17:00;38.40;;;19.10;;
68507;SDS011;55510;49.560;19.090;2023-05-07T16:20:01;28.70;;;15.30;;
68507;SDS011;55510;49.560;19.090;2023-05-07T16:23:05;33.57;;;17.70;;
68507;SDS011;55510;49.560;19.090;2023-05-07T16:26:06;28.58;;;14.70;;
68507;SDS011;55510;49.560;19.090;2023-05-07T16:29:06;26.47;;;13.43;;
68507;SDS011;55510;49.560;19.090;2023-05-07T16:32:07;29.42;;;13.40;;
68507;SDS011;55510;49.560;19.090;2023-05-07T16:35:11;35.67;;;15.50;;
68507;SDS011;55510;49.560;19.090;2023-05-07T16:38:12;38.60;;;19.02;;
68507;SDS011;55510;49.560;19.090;2023-05-07T16:41:13;35.90;;;16.53;;
68507;SDS011;55510;49.560;19.090;2023-05-07T16:44:14;46.00;;;20.02;;
68507;SDS011;55510;49.560;19.090;2023-05-07T16:47:14;35.30;;;14.83;;
68507;SDS011;55510;49.560;19.090;2023-05-07T16:50:15;29.95;;;13.15;;
68507;SDS011;55510;49.560;19.090;2023-05-07T16:53:16;38.67;;;16.80;;
68507;SDS011;55510;49.560;19.090;2023-05-07T16:56:16;16.83;;;9.57;;
68507;SDS011;55510;49.560;19.090;2023-05-07T16:59:17;25.30;;;11.13;;
68507;SDS011;55510;49.560;19.090;2023-05-07T17:02:18;21.70;;;10.05;;
68507;SDS011;55510;49.560;19.090;2023-05-07T17:05:19;17.73;;;9.67;;
68507;SDS011;55510;49.560;19.090;2023-05-07T17:08:19;22.67;;;11.43;;
68507;SDS011;55510;49.560;19.090;2023-05-07T17:11:20;24.17;;;10.87;;
68507;SDS011;55510;49.560;19.090;2023-05-07T17:14:21;22.55;;;10.07;;
68507;SDS011;55510;49.560;19.090;2023-05-07T17:17:22;25.53;;;11.53;;
68507;SDS011;55510;49.560;19.090;2023-05-07T17:20:23;18.90;;;9.00;;
68507;SDS011;55510;49.560;19.090;2023-05-07T17:23:24;23.40;;;12.60;;
68507;SDS011;55510;49.560;19.090;2023-05-07T17:26:25;15.77;;;8.47;;
68507;SDS011;55510;49.560;19.090;2023-05-07T17:29:28;25.33;;;12.88;;
68507;SDS011;55510;49.560;19.090;2023-05-07T17:32:29;22.02;;;10.25;;
68507;SDS011;55510;49.560;19.090;2023-05-07T17:35:31;22.73;;;10.48;;
68507;SDS011;55510;49.560;19.090;2023-05-07T17:38:32;19.03;;;9.60;;
68507;SDS011;55510;49.560;19.090;2023-05-07T17:41:34;17.77;;;8.70;;
68507;SDS011;55510;49.560;19.090;2023-05-07T17:44:35;19.25;;;9.43;;
68507;SDS011;55510;49.560;19.090;2023-05-07T17:47:36;22.77;;;10.60;;
68507;SDS011;55510;49.560;19.090;2023-05-07T17:50:37;15.52;;;8.85;;
68507;SDS011;55510;49.560;19.090;2023-05-07T17:53:38;17.83;;;8.93;;
68507;SDS011;55510;49.560;19.090;2023-05-07T17:56:39;18.25;;;7.93;;
68507;SDS011;55510;49.560;19.090;2023-05-07T17:59:41;18.85;;;9.45;;
68507;SDS011;55510;49.560;19.090;2023-05-07T18:02:41;22.30;;;10.90;;
68507;SDS011;55510;49.560;19.090;2023-05-07T18:05:42;18.75;;;9.90;;
68507;SDS011;55510;49.560;19.090;2023-05-07T18:08:43;19.73;;;9.47;;
68507;SDS011;55510;49.560;19.090;2023-05-07T18:11:44;31.33;;;13.80;;
68507;SDS011;55510;49.560;19.090;2023-05-07T18:14:45;19.70;;;9.27;;
68507;SDS011;55510;49.560;19.090;2023-05-07T18:17:46;16.17;;;8.13;;
68507;SDS011;55510;49.560;19.090;2023-05-07T18:20:48;17.02;;;8.13;;
68507;SDS011;55510;49.560;19.090;2023-05-07T18:23:50;21.70;;;10.10;;
68507;SDS011;55510;49.560;19.090;2023-05-07T18:26:50;17.60;;;8.90;;
68507;SDS011;55510;49.560;19.090;2023-05-07T18:29:51;18.77;;;9.85;;
68507;SDS011;55510;49.560;19.090;2023-05-07T18:32:52;18.63;;;9.40;;
68507;SDS011;55510;49.560;19.090;2023-05-07T18:35:53;19.73;;;9.52;;
68507;SDS011;55510;49.560;19.090;2023-05-07T18:38:54;19.90;;;9.60;;
68507;SDS011;55510;49.560;19.090;2023-05-07T18:41:55;22.30;;;9.75;;
68507;SDS011;55510;49.560;19.090;2023-05-07T18:44:57;21.20;;;11.40;;
68507;SDS011;55510;49.560;19.090;2023-05-07T18:47:57;24.90;;;12.73;;
68507;SDS011;55510;49.560;19.090;2023-05-07T18:50:58;28.37;;;14.50;;
68507;SDS011;55510;49.560;19.090;2023-05-07T18:53:59;19.37;;;10.07;;
68507;SDS011;55510;49.560;19.090;2023-05-07T18:57:01;21.50;;;10.52;;
68507;SDS011;55510;49.560;19.090;2023-05-07T19:00:02;21.47;;;10.63;;
68507;SDS011;55510;49.560;19.090;2023-05-07T19:03:06;23.50;;;10.52;;
68507;SDS011;55510;49.560;19.090;2023-05-07T19:06:06;23.40;;;8.60;;
68507;SDS011;55510;49.560;19.090;2023-05-07T19:09:07;19.63;;;9.80;;
68507;SDS011;55510;49.560;19.090;2023-05-07T19:12:11;19.67;;;9.30;;
68507;SDS011;55510;49.560;19.090;2023-05-07T19:15:12;18.33;;;8.17;;
68507;SDS011;55510;49.560;19.090;2023-05-07T19:18:12;18.20;;;8.30;;
68507;SDS011;55510;49.560;19.090;2023-05-07T19:21:13;22.60;;;9.60;;
68507;SDS011;55510;49.560;19.090;2023-05-07T19:24:14;21.15;;;10.32;;
68507;SDS011;55510;49.560;19.090;2023-05-07T19:27:16;20.33;;;8.85;;
68507;SDS011;55510;49.560;19.090;2023-05-07T19:30:16;21.97;;;9.90;;
68507;SDS011;55510;49.560;19.090;2023-05-07T19:33:18;20.23;;;10.80;;
68507;SDS011;55510;49.560;19.090;2023-05-07T19:36:19;26.80;;;11.80;;
68507;SDS011;55510;49.560;19.090;2023-05-07T19:39:20;23.00;;;11.17;;
68507;SDS011;55510;49.560;19.090;2023-05-07T19:42:20;20.48;;;9.98;;
68507;SDS011;55510;49.560;19.090;2023-05-07T19:45:21;22.50;;;10.13;;
68507;SDS011;55510;49.560;19.090;2023-05-07T19:48:22;19.50;;;9.18;;
68507;SDS011;55510;49.560;19.090;2023-05-07T19:51:22;29.33;;;13.70;;
68507;SDS011;55510;49.560;19.090;2023-05-07T19:54:23;29.58;;;12.90;;
68507;SDS011;55510;49.560;19.090;2023-05-07T19:57:24;25.27;;;11.67;;
68507;SDS011;55510;49.560;19.090;2023-05-07T20:00:24;25.55;;;11.32;;
68507;SDS011;55510;49.560;19.090;2023-05-07T20:03:27;31.57;;;11.83;;
68507;SDS011;55510;49.560;19.090;2023-05-07T20:06:29;22.63;;;10.68;;
68507;SDS011;55510;49.560;19.090;2023-05-07T20:09:30;17.90;;;8.63;;
68507;SDS011;55510;49.560;19.090;2023-05-07T20:12:31;23.73;;;11.00;;
68507;SDS011;55510;49.560;19.090;2023-05-07T20:15:32;30.10;;;13.40;;
68507;SDS011;55510;49.560;19.090;2023-05-07T20:18:35;25.10;;;11.50;;
68507;SDS011;55510;49.560;19.090;2023-05-07T20:21:36;22.97;;;10.57;;
68507;SDS011;55510;49.560;19.090;2023-05-07T20:24:37;26.17;;;13.00;;
68507;SDS011;55510;49.560;19.090;2023-05-07T20:27:40;20.02;;;9.55;;
68507;SDS011;55510;49.560;19.090;2023-05-07T20:30:41;20.43;;;9.10;;
68507;SDS011;55510;49.560;19.090;2023-05-07T20:33:42;18.10;;;9.32;;
68507;SDS011;55510;49.560;19.090;2023-05-07T20:36:42;18.53;;;9.40;;
68507;SDS011;55510;49.560;19.090;2023-05-07T20:39:43;20.73;;;9.67;;
68507;SDS011;55510;49.560;19.090;2023-05-07T20:42:43;19.63;;;10.40;;
68507;SDS011;55510;49.560;19.090;2023-05-07T20:45:44;22.63;;;10.70;;
68507;SDS011;55510;49.560;19.090;2023-05-07T20:48:45;15.25;;;7.90;;
68507;SDS011;55510;49.560;19.090;2023-05-07T20:51:46;20.90;;;7.70;;
68507;SDS011;55510;49.560;19.090;2023-05-07T20:54:46;15.27;;;7.70;;
68507;SDS011;55510;49.560;19.090;2023-05-07T20:57:49;17.77;;;8.47;;
68507;SDS011;55510;49.560;19.090;2023-05-07T21:00:51;17.30;;;7.78;;
68507;SDS011;55510;49.560;19.090;2023-05-07T21:03:52;15.00;;;6.93;;
68507;SDS011;55510;49.560;19.090;2023-05-07T21:06:53;14.43;;;7.67;;
68507;SDS011;55510;49.560;19.090;2023-05-07T21:09:54;15.88;;;7.15;;
68507;SDS011;55510;49.560;19.090;2023-05-07T21:12:54;21.53;;;8.67;;
68507;SDS011;55510;49.560;19.090;2023-05-07T21:15:55;28.33;;;11.20;;
68507;SDS011;55510;49.560;19.090;2023-05-07T21:18:55;21.93;;;8.90;;
68507;SDS011;55510;49.560;19.090;2023-05-07T21:21:56;15.27;;;7.40;;
68507;SDS011;55510;49.560;19.090;2023-05-07T21:24:57;14.55;;;7.95;;
68507;SDS011;55510;49.560;19.090;2023-05-07T21:28:00;22.75;;;9.32;;
68507;SDS011;55510;49.560;19.090;2023-05-07T21:31:04;20.33;;;10.07;;
68507;SDS011;55510;49.560;19.090;2023-05-07T21:34:05;17.80;;;9.07;;
68507;SDS011;55510;49.560;19.090;2023-05-07T21:37:07;15.88;;;7.70;;
68507;SDS011;55510;49.560;19.090;2023-05-07T21:40:09;18.85;;;8.75;;
68507;SDS011;55510;49.560;19.090;2023-05-07T21:43:10;16.00;;;7.40;;
68507;SDS011;55510;49.560;19.090;2023-05-07T21:46:11;18.23;;;9.00;;
68507;SDS011;55510;49.560;19.090;2023-05-07T21:49:11;19.73;;;9.33;;
68507;SDS011;55510;49.560;19.090;2023-05-07T21:52:12;17.02;;;7.65;;
68507;SDS011;55510;49.560;19.090;2023-05-07T21:55:16;17.73;;;7.85;;
68507;SDS011;55510;49.560;19.090;2023-05-07T21:58:17;15.27;;;7.07;;
68507;SDS011;55510;49.560;19.090;2023-05-07T22:01:17;16.80;;;8.07;;
68507;SDS011;55510;49.560;19.090;2023-05-07T22:04:18;15.90;;;7.57;;
68507;SDS011;55510;49.560;19.090;2023-05-07T22:07:20;18.63;;;8.35;;
68507;SDS011;55510;49.560;19.090;2023-05-07T22:10:20;21.13;;;8.77;;
68507;SDS011;55510;49.560;19.090;2023-05-07T22:13:21;20.90;;;9.03;;
68507;SDS011;55510;49.560;19.090;2023-05-07T22:16:22;17.38;;;8.00;;
68507;SDS011;55510;49.560;19.090;2023-05-07T22:19:23;16.37;;;8.77;;
68507;SDS011;55510;49.560;19.090;2023-05-07T22:22:23;18.30;;;8.32;;
68507;SDS011;55510;49.560;19.090;2023-05-07T22:25:24;17.33;;;8.77;;
68507;SDS011;55510;49.560;19.090;2023-05-07T22:28:26;18.60;;;8.90;;
68507;SDS011;55510;49.560;19.090;2023-05-07T22:31:26;18.03;;;9.63;;
68507;SDS011;55510;49.560;19.090;2023-05-07T22:34:27;16.05;;;8.30;;
68507;SDS011;55510;49.560;19.090;2023-05-07T22:37:28;15.70;;;7.60;;
68507;SDS011;55510;49.560;19.090;2023-05-07T22:40:29;15.80;;;8.10;;
68507;SDS011;55510;49.560;19.090;2023-05-07T22:43:29;17.43;;;7.27;;
68507;SDS011;55510;49.560;19.090;2023-05-07T22:46:30;18.17;;;8.30;;
68507;SDS011;55510;49.560;19.090;2023-05-07T22:49:33;17.43;;;8.30;;
68507;SDS011;55510;49.560;19.090;2023-05-07T22:52:34;17.88;;;8.25;;
68507;SDS011;55510;49.560;19.090;2023-05-07T22:55:35;15.50;;;8.30;;
68507;SDS011;55510;49.560;19.090;2023-05-07T22:58:35;17.85;;;8.38;;
68507;SDS011;55510;49.560;19.090;2023-05-07T23:01:36;16.03;;;7.50;;
68507;SDS011;55510;49.560;19.090;2023-05-07T23:04:37;21.27;;;8.23;;
68507;SDS011;55510;49.560;19.090;2023-05-07T23:07:37;15.63;;;7.87;;
68507;SDS011;55510;49.560;19.090;2023-05-07T23:10:38;16.90;;;7.77;;
68507;SDS011;55510;49.560;19.090;2023-05-07T23:13:38;14.10;;;6.70;;
68507;SDS011;55510;49.560;19.090;2023-05-07T23:16:39;13.13;;;6.13;;
68507;SDS011;55510;49.560;19.090;2023-05-07T23:19:40;13.10;;;6.40;;
68507;SDS011;55510;49.560;19.090;2023-05-07T23:22:41;14.98;;;7.57;;
68507;SDS011;55510;49.560;19.090;2023-05-07T23:25:42;12.13;;;6.33;;
68507;SDS011;55510;49.560;19.090;2023-05-07T23:28:42;12.65;;;5.45;;
68507;SDS011;55510;49.560;19.090;2023-05-07T23:31:43;11.03;;;5.57;;
68507;SDS011;55510;49.560;19.090;2023-05-07T23:34:48;11.93;;;5.47;;
68507;SDS011;55510;49.560;19.090;2023-05-07T23:37:49;11.07;;;6.03;;
68507;SDS011;55510;49.560;19.090;2023-05-07T23:40:51;10.38;;;5.47;;
68507;SDS011;55510;49.560;19.090;2023-05-07T23:43:52;12.00;;;5.07;;
68507;SDS011;55510;49.560;19.090;2023-05-07T23:46:53;10.50;;;5.20;;
68507;SDS011;55510;49.560;19.090;2023-05-07T23:49:53;11.83;;;5.63;;
68507;SDS011;55510;49.560;19.090;2023-05-07T23:52:54;14.13;;;5.93;;
68507;SDS011;55510;49.560;19.090;2023-05-07T23:55:55;11.47;;;5.33;;
68507;SDS011;55510;49.560;19.090;2023-05-07T23:58:56;12.85;;;4.40;;
